Time;durP1;ratioP1;P1;durP2;ratioP2;P2;SDS_P1;SDS_P2;PMS_P1;PMS_P2;Temp;Humidity;BMP_temperature;BMP_pressure;BME280_temperature;BME280_humidity;BME280_pressure;Samples;Min_cycle;Max_cycle;Signal;HPM_P1;HPM_P2
2023/11/09 00:00:47;;;;;;;;;;;7.80;99.90;;;6.99;100.00;97092.03;4987604;28;1546;-73
2023/11/09 00:03:14;;;;;;;;;;;7.90;99.90;;;7.11;100.00;97094.97;4989906;28;1823;-73
2023/11/09 00:05:41;;;;;;;;;;;7.90;99.90;;;7.11;100.00;97087.25;4972987;28;1661;-73
2023/11/09 00:08:08;;;;;;;;;;;8.00;99.90;;;7.20;100.00;97087.81;4988133;28;1895;-73
2023/11/09 00:10:35;;;;;;;;;;;8.00;99.90;;;7.15;100.00;97094.88;4985607;28;1425;-73
2023/11/09 00:13:02;;;;;;;;;;;7.90;99.90;;;7.16;100.00;97093.97;4984171;28;1768;-73
2023/11/09 00:15:30;;;;;;;;;;;7.90;99.90;;;7.23;100.00;97067.91;4984355;28;1641;-73
2023/11/09 00:17:59;;;;;;;;;;;8.00;99.90;;;7.25;100.00;97072.97;4986066;28;2084;-73
2023/11/09 00:20:27;;;;;;;;;;;8.00;99.90;;;7.30;100.00;97071.09;4985849;28;2343;-73
2023/11/09 00:22:54;;;;;;;;;;;8.10;99.90;;;7.28;100.00;97078.88;4985809;28;1821;-73
2023/11/09 00:25:21;;;;;;;;;;;8.10;99.90;;;7.18;100.00;97071.53;5001255;28;1881;-74
2023/11/09 00:27:48;;;;;;;;;;;8.00;99.90;;;7.26;100.00;97067.78;4982538;28;1643;-72
2023/11/09 00:30:15;;;;;;;;;;;8.10;99.90;;;7.26;100.00;97064.38;4985656;28;1534;-73
2023/11/09 00:32:42;;;;;;;;;;;8.10;99.90;;;7.29;100.00;97064.22;4984001;28;1697;-73
2023/11/09 00:35:09;;;;;;;;;;;8.10;99.90;;;7.27;100.00;97060.88;4984013;28;1532;-73
2023/11/09 00:37:39;;;;;;;;;;;8.10;99.90;;;7.29;100.00;97051.31;4982255;28;1764;-73
2023/11/09 00:40:09;;;;;;;;;;;8.10;99.90;;;7.30;100.00;97064.19;4980354;28;1903;-73
2023/11/09 00:42:38;;;;;;;;;;;8.10;99.90;;;7.30;100.00;97053.03;4982463;28;1886;-73
2023/11/09 00:45:05;;;;;;;;;;;8.10;99.90;;;7.23;100.00;97046.38;4984479;28;1794;-73
2023/11/09 00:47:32;;;;;;;;;;;8.10;99.90;;;7.27;100.00;97048.78;4986121;28;1758;-73
2023/11/09 00:49:59;;;;;;;;;;;8.10;99.90;;;7.27;100.00;97042.78;4984719;28;1862;-73
2023/11/09 00:52:26;;;;;;;;;;;8.10;99.90;;;7.30;100.00;97038.38;4983833;28;1815;-73
2023/11/09 00:54:53;;;;;;;;;;;8.10;99.90;;;7.30;100.00;97046.13;4984263;28;1819;-73
2023/11/09 00:57:20;;;;;;;;;;;8.10;99.90;;;7.42;100.00;97036.22;4982672;28;1669;-72
2023/11/09 00:59:49;;;;;;;;;;;8.10;99.90;;;7.42;100.00;97031.06;4986309;28;1911;-73
2023/11/09 01:02:16;;;;;;;;;;;8.20;99.90;;;7.35;100.00;97024.44;4986016;28;2039;-73
2023/11/09 01:04:48;;;;;;;;;;;8.20;99.90;;;7.25;100.00;97008.44;4983274;28;1834;-72
2023/11/09 01:07:15;;;;;;;;;;;8.20;99.90;;;7.34;100.00;97036.50;4999838;28;1868;-73
2023/11/09 01:09:45;;;;;;;;;;;8.10;99.90;;;7.36;100.00;97023.53;4984938;28;1671;-72
2023/11/09 01:12:13;;;;;;;;;;;8.10;99.90;;;7.28;100.00;97031.59;4984069;28;1826;-73
2023/11/09 01:14:40;;;;;;;;;;;8.10;99.90;;;7.36;100.00;97026.13;4980279;28;1835;-71
2023/11/09 01:17:07;;;;;;;;;;;8.10;99.90;;;7.32;100.00;97020.22;4981083;28;2279;-73
2023/11/09 01:19:34;;;;;;;;;;;8.10;99.90;;;7.38;100.00;97020.00;4984029;28;1906;-73
2023/11/09 01:22:01;;;;;;;;;;;8.10;99.90;;;7.32;100.00;97008.19;4999986;28;1946;-73
2023/11/09 01:24:28;;;;;;;;;;;8.10;99.90;;;7.40;100.00;97015.59;4986512;28;1845;-73
2023/11/09 01:26:55;;;;;;;;;;;8.10;99.90;;;7.42;100.00;97010.41;4982188;28;1721;-73
2023/11/09 01:29:22;;;;;;;;;;;8.10;99.90;;;7.36;100.00;97002.88;4996383;28;1742;-73
2023/11/09 01:31:49;;;;;;;;;;;8.10;99.90;;;7.33;100.00;97027.09;4982933;28;2089;-73
2023/11/09 01:34:18;;;;;;;;;;;8.10;99.90;;;7.45;100.00;97018.84;4982958;28;1918;-72
2023/11/09 01:36:45;;;;;;;;;;;8.20;99.90;;;7.50;100.00;97005.75;4984269;28;1673;-73
2023/11/09 01:39:12;;;;;;;;;;;8.20;99.90;;;7.49;100.00;97017.00;4984798;28;1934;-72
2023/11/09 01:41:42;;;;;;;;;;;8.20;99.90;;;7.45;100.00;96997.34;4985167;28;1975;-73
2023/11/09 01:44:09;;;;;;;;;;;8.20;99.90;;;7.47;100.00;97003.31;4984468;28;1680;-73
2023/11/09 01:46:40;;;;;;;;;;;8.20;99.90;;;7.29;100.00;97002.28;4967225;28;1656;-72
2023/11/09 01:49:09;;;;;;;;;;;8.10;99.90;;;7.32;100.00;96989.25;4984384;28;1727;-73
2023/11/09 01:51:37;;;;;;;;;;;8.20;99.90;;;7.39;100.00;97000.16;4984005;28;1793;-73
2023/11/09 01:54:05;;;;;;;;;;;8.20;99.90;;;7.42;100.00;96992.31;4985896;28;1210;-73
2023/11/09 01:56:33;;;;;;;;;;;8.10;99.90;;;7.36;100.00;96995.13;4982908;28;1672;-73
2023/11/09 01:58:59;;;;;;;;;;;8.10;99.90;;;7.45;100.00;96994.78;4983702;28;1971;-73
2023/11/09 02:01:27;;;;;;;;;;;8.10;99.90;;;7.39;100.00;96977.78;4984644;28;1783;-73
2023/11/09 02:03:54;;;;;;;;;;;8.20;99.90;;;7.38;100.00;96975.25;4984805;28;1684;-73
2023/11/09 02:06:21;;;;;;;;;;;8.20;99.90;;;7.27;100.00;96973.94;4983845;28;1707;-73
2023/11/09 02:08:48;;;;;;;;;;;8.10;99.90;;;7.36;100.00;96959.00;4983652;28;1493;-73
2023/11/09 02:11:16;;;;;;;;;;;8.10;99.90;;;7.34;100.00;96969.38;4981046;28;1799;-73
2023/11/09 02:13:43;;;;;;;;;;;8.10;99.90;;;7.31;100.00;96966.91;4984132;28;1712;-73
2023/11/09 02:16:10;;;;;;;;;;;8.10;99.90;;;7.28;100.00;96962.72;4979807;28;1591;-73
2023/11/09 02:18:37;;;;;;;;;;;8.10;99.90;;;7.19;100.00;96954.50;4970242;28;1729;-73
2023/11/09 02:21:04;;;;;;;;;;;8.10;99.90;;;7.32;100.00;96948.78;4977989;28;1965;-73
2023/11/09 02:23:33;;;;;;;;;;;8.10;99.90;;;7.29;100.00;96943.72;4982799;28;1557;-73
2023/11/09 02:26:00;;;;;;;;;;;8.10;99.90;;;7.25;100.00;96942.19;4980414;28;1671;-73
2023/11/09 02:28:27;;;;;;;;;;;8.10;99.90;;;7.24;100.00;96942.25;4983677;28;1512;-73
2023/11/09 02:30:54;;;;;;;;;;;8.10;99.90;;;7.22;100.00;96944.88;4999722;28;1698;-73
2023/11/09 02:33:21;;;;;;;;;;;8.10;99.90;;;7.24;100.00;96937.91;4983414;28;1672;-73
2023/11/09 02:35:49;;;;;;;;;;;8.10;99.90;;;7.27;100.00;96948.13;4984273;28;1641;-73
2023/11/09 02:38:16;;;;;;;;;;;8.10;99.90;;;7.25;100.00;96938.75;4968619;28;1491;-73
2023/11/09 02:40:43;;;;;;;;;;;8.00;99.90;;;7.16;100.00;96937.41;4986245;28;1907;-73
2023/11/09 02:43:12;;;;;;;;;;;8.00;99.90;;;7.23;100.00;96938.84;4968617;28;1436;-72
2023/11/09 02:45:39;;;;;;;;;;;8.10;99.90;;;7.18;100.00;96934.75;4980549;28;1677;-73
2023/11/09 02:48:06;;;;;;;;;;;8.10;99.90;;;7.21;100.00;96930.31;4978576;28;1644;-73
2023/11/09 02:50:33;;;;;;;;;;;8.00;99.90;;;7.50;100.00;96929.16;4985084;28;1545;-74
2023/11/09 02:53:00;;;;;;;;;;;8.10;99.90;;;7.26;100.00;96919.81;4981373;28;1790;-72
2023/11/09 02:55:30;;;;;;;;;;;8.10;99.90;;;7.26;100.00;96918.06;4997918;28;1673;-72
2023/11/09 02:57:57;;;;;;;;;;;8.10;99.90;;;7.13;100.00;96922.84;4980153;28;1730;-73
2023/11/09 03:00:25;;;;;;;;;;;8.10;99.90;;;7.10;100.00;96917.00;4980139;28;1991;-73
2023/11/09 03:02:52;;;;;;;;;;;8.00;99.90;;;7.15;100.00;96916.81;4977795;28;1785;-73
2023/11/09 03:05:22;;;;;;;;;;;8.10;99.90;;;7.18;100.00;96921.84;4983838;28;1536;-73
2023/11/09 03:07:50;;;;;;;;;;;8.10;99.90;;;7.12;100.00;96912.59;4978415;28;1634;-73
2023/11/09 03:10:17;;;;;;;;;;;8.00;99.90;;;7.11;100.00;96913.50;4980697;28;1547;-73
2023/11/09 03:12:44;;;;;;;;;;;8.00;99.90;;;7.16;100.00;96908.16;4980685;28;1781;-73
2023/11/09 03:15:11;;;;;;;;;;;8.00;99.90;;;7.21;100.00;96893.34;4984994;28;1658;-73
2023/11/09 03:17:41;;;;;;;;;;;8.10;99.90;;;7.18;100.00;96912.34;4969650;28;1664;-73
2023/11/09 03:20:09;;;;;;;;;;;8.10;99.90;;;7.21;100.00;96903.66;4985225;28;1998;-73
2023/11/09 03:22:37;;;;;;;;;;;8.10;99.90;;;7.25;100.00;96900.91;4988230;28;1679;-73
2023/11/09 03:25:04;;;;;;;;;;;8.10;99.90;;;7.18;100.00;96896.03;4985276;28;1597;-74
2023/11/09 03:27:33;;;;;;;;;;;8.00;99.90;;;7.28;100.00;96897.34;4984364;28;1574;-73
2023/11/09 03:29:59;;;;;;;;;;;8.00;99.90;;;7.21;100.00;96899.34;4983472;28;1451;-74
2023/11/09 03:32:26;;;;;;;;;;;8.00;99.90;;;7.21;100.00;96886.44;4986710;28;1718;-73
2023/11/09 03:34:54;;;;;;;;;;;8.00;99.90;;;7.13;100.00;96880.72;4983985;28;1411;-73
2023/11/09 03:37:20;;;;;;;;;;;8.00;99.90;;;7.23;100.00;96888.94;4972805;28;1614;-73
2023/11/09 03:39:48;;;;;;;;;;;8.00;99.90;;;7.16;100.00;96879.75;4986599;28;1977;-73
2023/11/09 03:42:15;;;;;;;;;;;8.00;99.90;;;7.11;100.00;96879.94;4983999;28;1875;-73
2023/11/09 03:44:44;;;;;;;;;;;8.00;99.90;;;7.16;100.00;96874.59;4990096;28;1548;-73
2023/11/09 03:47:11;;;;;;;;;;;8.00;99.90;;;7.12;100.00;96874.72;4985926;28;1623;-71
2023/11/09 03:49:40;;;;;;;;;;;8.00;99.90;;;7.11;100.00;96867.03;4985644;28;1709;-73
2023/11/09 03:52:08;;;;;;;;;;;8.00;99.90;;;7.13;100.00;96875.56;4985321;28;1659;-73
2023/11/09 03:54:35;;;;;;;;;;;8.00;99.90;;;7.16;100.00;96862.56;4988289;28;1539;-73
2023/11/09 03:57:02;;;;;;;;;;;8.00;99.90;;;7.26;100.00;96878.50;4984195;28;1715;-73
2023/11/09 03:59:29;;;;;;;;;;;8.00;99.90;;;7.22;100.00;96870.03;4998168;28;1934;-73
2023/11/09 04:01:56;;;;;;;;;;;8.00;99.90;;;7.24;100.00;96869.97;4982681;28;1659;-73
2023/11/09 04:04:23;;;;;;;;;;;8.10;99.90;;;7.20;100.00;96855.50;5002253;28;1624;-73
2023/11/09 04:06:50;;;;;;;;;;;8.00;99.90;;;7.24;100.00;96873.38;4983185;28;1610;-73
2023/11/09 04:09:21;;;;;;;;;;;8.10;99.90;;;7.33;100.00;96864.44;4982248;28;1450;-73
2023/11/09 04:11:51;;;;;;;;;;;8.10;99.90;;;7.37;100.00;96862.56;4981647;28;1555;-74
2023/11/09 04:14:18;;;;;;;;;;;8.10;99.90;;;7.43;100.00;96859.72;4985998;28;1665;-72
2023/11/09 04:16:45;;;;;;;;;;;8.20;99.90;;;7.45;100.00;96856.16;4978677;28;1571;-72
2023/11/09 04:19:12;;;;;;;;;;;8.20;99.90;;;7.45;100.00;96852.75;4979332;28;1464;-72
2023/11/09 04:21:39;;;;;;;;;;;8.20;99.90;;;7.49;100.00;96856.91;4979820;28;1985;-73
2023/11/09 04:24:06;;;;;;;;;;;8.30;99.90;;;7.49;100.00;96849.16;4984388;28;1588;-72
2023/11/09 04:26:33;;;;;;;;;;;8.30;99.90;;;7.57;100.00;96851.41;4968868;28;1651;-73
2023/11/09 04:29:02;;;;;;;;;;;8.40;99.90;;;7.60;100.00;96833.22;4983428;28;1418;-73
2023/11/09 04:31:30;;;;;;;;;;;8.30;99.90;;;7.57;100.00;96830.75;4980910;28;1725;-73
2023/11/09 04:34:08;;;;;;;;;;;8.40;99.90;;;7.57;100.00;96829.00;4986825;28;1438;-73
2023/11/09 04:36:42;;;;;;;;;;;8.40;99.90;;;7.64;100.00;96820.09;4985718;28;1638;-73
2023/11/09 04:39:27;;;;;;;;;;;8.40;99.90;;;7.65;100.00;96820.94;4981095;28;1475;-73
2023/11/09 04:41:58;;;;;;;;;;;8.40;99.90;;;7.62;100.00;96821.03;4983643;28;1690;-72
2023/11/09 04:44:26;;;;;;;;;;;8.40;99.90;;;7.61;100.00;96833.13;4985840;28;1403;-73
2023/11/09 04:46:55;;;;;;;;;;;8.40;99.90;;;7.70;100.00;96818.97;4980946;28;1492;-73
2023/11/09 04:49:22;;;;;;;;;;;8.50;99.90;;;7.71;100.00;96831.00;4987300;28;1490;-73
2023/11/09 04:51:52;;;;;;;;;;;8.50;99.90;;;7.75;100.00;96820.47;4992390;28;1728;-73
2023/11/09 04:54:24;;;;;;;;;;;8.50;99.90;;;7.72;100.00;96820.59;4978465;28;1350;-73
2023/11/09 05:07:29;;;;;;;;;;;8.60;99.90;;;7.80;100.00;96786.69;4983559;28;1733;-73
2023/11/09 05:09:57;;;;;;;;;;;8.60;99.90;;;7.79;100.00;96789.34;4984683;28;1382;-73
2023/11/09 05:12:24;;;;;;;;;;;8.60;99.90;;;7.82;100.00;96799.53;4982170;28;1941;-73
2023/11/09 05:14:52;;;;;;;;;;;8.60;99.90;;;7.88;100.00;96799.25;4986928;28;1601;-73
2023/11/09 05:17:22;;;;;;;;;;;8.60;99.90;;;7.85;100.00;96804.56;4983362;28;1591;-72
2023/11/09 05:19:50;;;;;;;;;;;8.70;99.90;;;7.89;100.00;96806.94;4986143;28;1922;-73
2023/11/09 05:22:18;;;;;;;;;;;8.60;99.90;;;7.93;100.00;96820.56;4981635;28;1692;-73
2023/11/09 05:24:45;;;;;;;;;;;8.60;99.90;;;7.77;100.00;96820.38;4984294;28;1606;-73
2023/11/09 05:27:12;;;;;;;;;;;8.50;99.90;;;7.56;100.00;96824.75;4982289;28;1888;-72
2023/11/09 05:29:39;;;;;;;;;;;8.50;99.90;;;7.40;100.00;96818.56;4986949;28;1478;-74
2023/11/09 05:32:06;;;;;;;;;;;8.30;99.90;;;7.39;100.00;96834.94;4982109;28;1616;-73
2023/11/09 05:34:34;;;;;;;;;;;8.20;99.90;;;7.25;100.00;96838.94;4980006;28;1477;-73
2023/11/09 05:37:02;;;;;;;;;;;8.10;99.90;;;7.24;100.00;96826.94;4980222;28;1657;-73
2023/11/09 05:39:30;;;;;;;;;;;8.00;99.90;;;7.11;100.00;96854.13;4970300;28;1712;-74
2023/11/09 05:41:59;;;;;;;;;;;8.00;99.90;;;6.98;100.00;96853.81;4984651;28;1965;-73
2023/11/09 05:44:26;;;;;;;;;;;8.00;99.90;;;6.96;100.00;96855.59;4984077;28;1521;-73
2023/11/09 05:46:56;;;;;;;;;;;7.80;99.90;;;6.84;100.00;96868.97;4986415;28;1644;-73
2023/11/09 05:49:25;;;;;;;;;;;7.80;99.90;;;6.76;100.00;96866.69;4987930;28;1582;-74
2023/11/09 05:51:53;;;;;;;;;;;7.70;99.90;;;6.69;100.00;96873.81;4968490;28;1708;-74
2023/11/09 05:54:22;;;;;;;;;;;7.60;99.90;;;6.72;100.00;96877.19;4984798;28;1574;-73
2023/11/09 05:56:49;;;;;;;;;;;7.60;99.90;;;6.63;100.00;96880.97;4981894;28;1705;-73
2023/11/09 05:59:15;;;;;;;;;;;7.50;99.90;;;6.59;100.00;96882.81;4986712;28;1627;-73
2023/11/09 06:01:45;;;;;;;;;;;7.50;99.90;;;6.55;100.00;96889.00;4983105;28;1906;-72
2023/11/09 06:04:12;;;;;;;;;;;7.40;99.90;;;6.56;100.00;96889.81;4984177;28;1521;-72
2023/11/09 06:06:39;;;;;;;;;;;7.40;99.90;;;6.53;100.00;96895.09;4982280;28;1653;-73
2023/11/09 06:09:06;;;;;;;;;;;7.30;99.90;;;6.44;100.00;96889.38;4985081;28;1540;-73
2023/11/09 06:11:34;;;;;;;;;;;7.30;99.90;;;6.44;100.00;96889.38;4969543;28;1580;-73
2023/11/09 06:14:03;;;;;;;;;;;7.30;99.90;;;6.48;100.00;96896.13;4979368;28;1728;-73
2023/11/09 06:16:32;;;;;;;;;;;7.30;99.90;;;6.45;100.00;96885.06;4980921;28;1583;-73
2023/11/09 06:19:02;;;;;;;;;;;7.30;99.90;;;6.44;100.00;96886.81;4985042;28;1363;-73
2023/11/09 06:21:29;;;;;;;;;;;7.20;99.90;;;6.41;100.00;96868.88;4982470;28;1906;-73
2023/11/09 06:23:56;;;;;;;;;;;7.20;99.90;;;6.47;100.00;96885.84;4984598;28;1254;-73
2023/11/09 06:26:24;;;;;;;;;;;7.30;99.90;;;6.43;100.00;96885.13;4981381;28;1614;-73
2023/11/09 06:28:52;;;;;;;;;;;7.20;99.90;;;6.45;100.00;96872.16;4983135;28;1312;-73
2023/11/09 06:31:22;;;;;;;;;;;7.20;99.90;;;6.49;100.00;96891.78;4985669;28;1784;-73
2023/11/09 06:33:51;;;;;;;;;;;7.20;99.90;;;6.50;100.00;96896.06;4980942;28;1388;-73
2023/11/09 06:36:22;;;;;;;;;;;7.30;99.90;;;6.45;100.00;96879.91;4985353;28;1613;-73
2023/11/09 06:38:49;;;;;;;;;;;7.30;99.90;;;6.49;100.00;96887.47;4983835;28;1598;-73
2023/11/09 06:41:16;;;;;;;;;;;7.30;99.90;;;6.48;100.00;96888.38;4984661;28;1906;-73
2023/11/09 06:43:43;;;;;;;;;;;7.30;99.90;;;6.48;100.00;96877.22;4980493;28;1473;-73
2023/11/09 06:46:10;;;;;;;;;;;7.30;99.90;;;6.54;100.00;96899.34;4979346;28;1620;-73
2023/11/09 06:48:38;;;;;;;;;;;7.30;99.90;;;6.54;100.00;96889.88;4985806;28;1411;-72
2023/11/09 06:51:05;;;;;;;;;;;7.30;99.90;;;6.52;100.00;96891.66;4983192;28;1624;-73
2023/11/09 06:53:32;;;;;;;;;;;7.30;99.90;;;6.57;100.00;96892.34;4988211;28;1550;-73
2023/11/09 06:55:59;;;;;;;;;;;7.40;99.90;;;6.57;100.00;96887.19;4986709;28;1647;-73
2023/11/09 06:58:26;;;;;;;;;;;7.40;99.90;;;6.57;100.00;96889.78;4968359;28;1312;-73
2023/11/09 07:00:54;;;;;;;;;;;7.30;99.90;;;6.57;100.00;96892.34;4989216;28;1922;-73
2023/11/09 07:03:22;;;;;;;;;;;7.40;99.90;;;6.62;100.00;96898.16;4985008;28;1301;-73
2023/11/09 07:05:50;;;;;;;;;;;7.40;99.90;;;6.66;100.00;96898.88;4987623;28;1618;-73
2023/11/09 07:08:17;;;;;;;;;;;7.40;99.90;;;6.63;100.00;96899.00;4990843;28;1713;-73
2023/11/09 07:10:44;;;;;;;;;;;7.40;99.90;;;6.67;100.00;96901.41;4988494;28;1901;-72
2023/11/09 07:13:11;;;;;;;;;;;7.50;99.90;;;6.68;100.00;96892.78;4986681;28;1276;-71
2023/11/09 07:15:39;;;;;;;;;;;7.50;99.90;;;6.71;100.00;96907.31;4984477;28;1384;-73
2023/11/09 07:18:07;;;;;;;;;;;7.40;99.90;;;6.66;100.00;96907.47;4983206;28;2031;-73
2023/11/09 07:20:35;;;;;;;;;;;7.50;99.90;;;6.71;100.00;96915.03;5001787;28;1986;-72
2023/11/09 07:23:06;;;;;;;;;;;7.50;99.90;;;6.70;100.00;96918.50;4985868;28;1925;-72
2023/11/09 07:25:36;;;;;;;;;;;7.50;99.90;;;6.76;100.00;96914.88;4986793;28;1285;-71
2023/11/09 07:28:08;;;;;;;;;;;7.50;99.90;;;6.75;100.00;96915.75;4986535;28;1961;-72
2023/11/09 07:30:35;;;;;;;;;;;7.50;99.90;;;6.73;100.00;96923.56;4986821;28;1427;-72
2023/11/09 07:33:03;;;;;;;;;;;7.50;99.90;;;6.70;100.00;96910.78;4983981;28;1844;-73
2023/11/09 07:35:30;;;;;;;;;;;7.50;99.90;;;6.70;100.00;96924.53;4979907;28;1811;-73
2023/11/09 07:37:58;;;;;;;;;;;7.50;99.90;;;6.74;100.00;96922.66;4984348;28;1654;-72
2023/11/09 07:40:27;;;;;;;;;;;7.50;99.90;;;6.77;100.00;96922.53;4983391;28;1946;-72
2023/11/09 07:42:57;;;;;;;;;;;7.50;99.90;;;6.80;100.00;96921.59;4986331;28;1563;-73
2023/11/09 07:45:24;;;;;;;;;;;7.50;99.90;;;6.84;100.00;96907.66;4978044;28;1099;-72
2023/11/09 07:47:51;;;;;;;;;;;7.50;99.90;;;6.80;100.00;96903.53;4971520;28;1616;-72
2023/11/09 07:50:19;;;;;;;;;;;7.50;99.90;;;6.77;100.00;96906.22;4984012;28;1550;-72
2023/11/09 07:52:47;;;;;;;;;;;7.50;99.90;;;6.77;100.00;96919.13;4988080;28;1784;-72
2023/11/09 07:55:16;;;;;;;;;;;7.50;99.90;;;6.71;100.00;96894.41;4988311;28;1086;-72
2023/11/09 07:57:45;;;;;;;;;;;7.50;99.90;;;6.81;100.00;96910.38;4971145;28;1612;-74
2023/11/09 08:00:12;;;;;;;;;;;7.50;99.90;;;6.81;100.00;96893.16;4984068;28;1693;-74
2023/11/09 08:02:39;;;;;;;;;;;7.60;99.90;;;6.88;100.00;96898.91;4982010;28;1961;-74
2023/11/09 08:05:13;;;;;;;;;;;7.60;99.90;;;6.93;100.00;96922.78;4987543;28;1392;-74
2023/11/09 08:07:42;;;;;;;;;;;7.50;99.90;;;7.02;100.00;96906.94;4971908;28;1517;-74
2023/11/09 08:10:10;;;;;;;;;;;7.60;99.90;;;6.91;100.00;96909.09;4983612;28;1537;-74
2023/11/09 08:12:41;;;;;;;;;;;7.60;99.90;;;6.93;100.00;96915.03;4998758;28;1541;-73
2023/11/09 08:15:13;;;;;;;;;;;7.70;99.90;;;6.97;100.00;96885.66;4987883;28;1536;-74
2023/11/09 08:17:41;;;;;;;;;;;7.70;99.90;;;7.02;100.00;96906.94;4983652;28;1630;-74
2023/11/09 08:20:13;;;;;;;;;;;7.70;99.90;;;7.03;100.00;96895.75;4984110;28;1391;-74
2023/11/09 08:22:44;;;;;;;;;;;7.80;99.90;;;7.06;100.00;96885.28;4981889;28;2025;-74
2023/11/09 08:25:13;;;;;;;;;;;7.70;99.90;;;7.08;100.00;96882.66;4969788;28;1678;-73
2023/11/09 08:27:42;;;;;;;;;;;7.80;99.90;;;7.03;100.00;96859.63;4985372;28;1700;-73
2023/11/09 08:30:10;;;;;;;;;;;7.80;99.90;;;7.05;100.00;96906.00;4981540;28;1642;-74
2023/11/09 08:32:38;;;;;;;;;;;7.80;99.90;;;7.11;100.00;96864.47;4980050;28;1668;-72
2023/11/09 08:35:10;;;;;;;;;;;7.80;99.90;;;7.10;100.00;96873.13;4986287;28;1313;-74
2023/11/09 08:37:38;;;;;;;;;;;7.70;99.90;;;7.11;100.00;96885.94;4984629;28;1658;-74
2023/11/09 08:40:09;;;;;;;;;;;7.80;99.90;;;7.10;100.00;96888.59;4985484;28;1478;-74
2023/11/09 08:42:37;;;;;;;;;;;7.80;99.90;;;7.12;100.00;96876.47;4982833;28;2022;-74
2023/11/09 08:45:09;;;;;;;;;;;7.80;99.90;;;7.13;100.00;96876.41;4984898;28;1495;-74
2023/11/09 08:47:37;;;;;;;;;;;7.80;99.90;;;7.18;100.00;96872.78;4983114;28;1754;-74
2023/11/09 08:50:04;;;;;;;;;;;7.80;99.90;;;7.18;100.00;96870.22;4986829;28;1619;-74
2023/11/09 08:52:33;;;;;;;;;;;7.90;99.90;;;7.16;100.00;96861.69;4987259;28;1742;-74
2023/11/09 08:55:02;;;;;;;;;;;7.90;99.90;;;7.16;100.00;96862.56;4986804;28;1265;-74
2023/11/09 08:57:31;;;;;;;;;;;7.90;99.90;;;7.18;100.00;96867.63;4979064;28;1623;-74
2023/11/09 09:00:00;;;;;;;;;;;7.90;99.90;;;7.15;100.00;96862.59;4981050;28;1067;-74
2023/11/09 09:02:29;;;;;;;;;;;7.90;99.90;;;7.30;100.00;96860.25;4985522;28;1979;-74
2023/11/09 09:04:56;;;;;;;;;;;7.90;99.90;;;7.33;100.00;96847.19;4988131;28;1059;-74
2023/11/09 09:07:23;;;;;;;;;;;8.00;99.90;;;7.36;100.00;96845.41;4983510;28;1603;-75
2023/11/09 09:09:50;;;;;;;;;;;8.00;99.90;;;7.34;100.00;96845.44;4983011;28;1383;-74
2023/11/09 09:12:18;;;;;;;;;;;8.10;99.90;;;7.38;100.00;96851.34;4982959;28;1841;-72
2023/11/09 09:14:47;;;;;;;;;;;8.10;99.90;;;7.40;100.00;96834.88;4983657;28;1169;-73
2023/11/09 09:17:16;;;;;;;;;;;8.10;99.90;;;7.46;100.00;96851.88;4985448;28;1599;-74
2023/11/09 09:19:44;;;;;;;;;;;8.10;99.90;;;7.52;100.00;96846.44;4985527;28;1401;-74
2023/11/09 09:22:13;;;;;;;;;;;8.10;99.90;;;7.46;100.00;96844.97;4982523;28;2005;-74
2023/11/09 09:24:40;;;;;;;;;;;8.10;99.90;;;7.53;100.00;96853.28;4985196;28;1404;-73
2023/11/09 09:27:09;;;;;;;;;;;8.20;99.90;;;7.54;100.00;96844.63;4971436;28;1667;-74
2023/11/09 09:29:37;;;;;;;;;;;8.20;99.90;;;7.57;100.00;96841.06;4986101;28;1953;-74
2023/11/09 09:32:04;;;;;;;;;;;8.20;99.90;;;7.57;100.00;96831.56;4982255;28;1536;-74
2023/11/09 09:34:34;;;;;;;;;;;8.20;99.90;;;7.66;100.00;96841.53;4979980;28;1065;-74
2023/11/09 09:37:01;;;;;;;;;;;8.20;99.90;;;7.68;100.00;96833.72;4982479;28;1651;-74
2023/11/09 09:39:29;;;;;;;;;;;8.30;99.90;;;7.71;100.00;96833.59;4994175;28;1034;-74
2023/11/09 09:41:58;;;;;;;;;;;8.30;99.90;;;7.73;100.00;96816.25;4985389;28;1985;-74
2023/11/09 09:44:26;;;;;;;;;;;8.30;99.90;;;7.81;100.00;96836.59;4985498;28;1085;-74
2023/11/09 09:46:56;;;;;;;;;;;8.30;99.90;;;7.74;100.00;96834.28;4980028;28;1611;-74
2023/11/09 09:49:25;;;;;;;;;;;8.40;99.90;;;7.91;100.00;96851.66;4973029;28;1222;-74
2023/11/09 09:51:55;;;;;;;;;;;8.40;99.90;;;7.91;100.00;96850.78;4985652;28;1673;-74
2023/11/09 09:54:23;;;;;;;;;;;8.50;99.90;;;7.97;100.00;96846.19;4985544;28;1207;-74
2023/11/09 09:56:50;;;;;;;;;;;8.50;99.90;;;7.96;100.00;96829.03;4999343;28;1573;-74
2023/11/09 09:59:18;;;;;;;;;;;8.50;99.90;;;7.98;100.00;96841.88;4968457;28;1397;-74
2023/11/09 10:01:48;;;;;;;;;;;8.60;99.90;;;8.04;100.00;96840.78;4984583;28;1985;-73
2023/11/09 10:04:16;;;;;;;;;;;8.60;99.90;;;8.04;100.00;96845.94;4986865;28;1298;-74
2023/11/09 10:06:45;;;;;;;;;;;8.60;99.90;;;8.11;100.00;96808.56;4984429;28;1682;-75
2023/11/09 10:09:14;;;;;;;;;;;8.60;99.90;;;8.20;100.00;96848.69;4985214;28;1392;-75
2023/11/09 10:11:42;;;;;;;;;;;8.70;99.90;;;8.14;100.00;96840.31;4982545;28;1717;-74
2023/11/09 10:14:11;;;;;;;;;;;8.70;99.90;;;8.13;100.00;96828.28;4979954;28;1646;-74
2023/11/09 10:16:41;;;;;;;;;;;8.70;99.90;;;8.19;100.00;96837.50;4980093;28;1685;-74
2023/11/09 10:19:09;;;;;;;;;;;8.70;99.90;;;8.20;100.00;96815.06;4983502;28;1661;-74
2023/11/09 10:21:36;;;;;;;;;;;8.70;99.90;;;8.17;100.00;96855.66;4965006;28;1927;-74
2023/11/09 10:24:06;;;;;;;;;;;8.70;99.90;;;8.12;100.00;96829.19;4983519;28;1575;-74
2023/11/09 10:26:41;;;;;;;;;;;8.70;99.90;;;8.12;100.00;96794.75;4982443;28;1719;-74
2023/11/09 10:29:14;;;;;;;;;;;8.70;99.90;;;8.16;100.00;96784.22;4985041;28;1567;-74
2023/11/09 10:31:42;;;;;;;;;;;8.80;99.90;;;8.24;100.00;96825.22;4983813;28;1583;-73
2023/11/09 10:34:11;;;;;;;;;;;8.80;99.90;;;8.22;100.00;96808.94;4986817;28;1372;-74
2023/11/09 10:36:44;;;;;;;;;;;8.80;99.90;;;8.32;100.00;96837.78;4984021;28;1765;-73
2023/11/09 10:39:22;;;;;;;;;;;8.80;99.90;;;8.29;100.00;96809.47;4985278;28;1536;-74
2023/11/09 10:41:54;;;;;;;;;;;8.80;99.90;;;8.30;100.00;96814.59;4981854;28;1903;-74
2023/11/09 10:44:28;;;;;;;;;;;8.80;99.90;;;8.32;100.00;96825.69;4983427;28;1742;-74
2023/11/09 10:46:59;;;;;;;;;;;8.80;99.90;;;8.30;100.00;96795.63;4979340;28;1728;-74
2023/11/09 10:49:36;;;;;;;;;;;8.90;99.90;;;8.45;100.00;96814.81;4986001;28;1612;-72
2023/11/09 10:52:08;;;;;;;;;;;8.90;99.90;;;8.53;100.00;96799.78;4970826;28;1892;-73
2023/11/09 10:54:36;;;;;;;;;;;9.00;99.90;;;8.53;100.00;96805.81;4973398;28;1537;-74
2023/11/09 10:57:05;;;;;;;;;;;9.00;99.90;;;8.54;100.00;96820.41;4985477;28;1642;-72
2023/11/09 10:59:40;;;;;;;;;;;9.00;99.90;;;8.53;100.00;96785.13;4984876;28;2064;-73
2023/11/09 11:02:15;;;;;;;;;;;9.00;99.90;;;8.58;100.00;96774.53;4985679;28;2011;-74
2023/11/09 11:04:48;;;;;;;;;;;9.20;99.90;;;8.65;100.00;96790.63;4987779;28;1473;-75
2023/11/09 11:07:25;;;;;;;;;;;9.10;99.90;;;8.85;100.00;96794.81;5000396;28;1587;-73
2023/11/09 11:09:56;;;;;;;;;;;9.20;99.90;;;8.85;100.00;96780.16;4983473;28;1767;-75
2023/11/09 11:12:24;;;;;;;;;;;9.20;99.90;;;8.93;100.00;96796.13;4984969;28;1660;-74
2023/11/09 11:14:53;;;;;;;;;;;9.30;99.90;;;9.00;100.00;96804.44;4972441;28;1654;-73
2023/11/09 11:17:39;;;;;;;;;;;9.40;99.90;;;9.03;100.00;96788.75;4984275;28;1587;-73
2023/11/09 11:20:30;;;;;;;;;;;9.40;99.90;;;9.02;100.00;96805.19;4984561;28;1586;-73
2023/11/09 11:23:02;;;;;;;;;;;9.50;99.90;;;8.97;100.00;96797.66;4997986;28;1975;-74
2023/11/09 11:25:56;;;;;;;;;;;9.50;99.90;;;8.98;100.00;96795.91;4987641;28;2099;-74
2023/11/09 11:28:26;;;;;;;;;;;9.50;99.90;;;8.99;100.00;96790.66;4987884;28;1461;-74
2023/11/09 11:30:59;;;;;;;;;;;9.50;99.90;;;9.13;100.00;96786.56;4986157;28;1556;-74
2023/11/09 11:33:26;;;;;;;;;;;9.70;99.90;;;9.11;100.00;96809.94;4987030;28;1902;-74
2023/11/09 11:35:58;;;;;;;;;;;9.60;99.90;;;9.18;100.00;96802.69;4984544;28;1629;-74
2023/11/09 11:38:28;;;;;;;;;;;9.70;99.90;;;9.23;100.00;96795.53;4981229;28;1643;-73
2023/11/09 11:41:22;;;;;;;;;;;9.70;99.90;;;9.26;100.00;96789.38;4968776;28;1689;-74
2023/11/09 11:43:53;;;;;;;;;;;9.70;99.90;;;9.18;100.00;96748.31;4983158;28;1703;-74
2023/11/09 11:46:23;;;;;;;;;;;9.70;99.90;;;9.41;100.00;96793.78;4979767;28;1711;-74
2023/11/09 11:48:57;;;;;;;;;;;9.70;99.90;;;9.40;100.00;96805.06;4982685;28;1695;-74
2023/11/09 11:51:24;;;;;;;;;;;9.80;99.90;;;9.27;100.00;96758.22;4980500;28;1851;-74